Neptune Avra — 9HKH6 — position and weather

sailwx.info

Track history (hours):
 
Tides and Currents Weather Stations Pressure Air Temp Water Temp Dewpoint Dewpoint Depression Visibility Wind Speed Wind Dir Waves Ship Positions

Neptune Avra

Last reported at 2017-Oct-19 00:59 UTC. Time now 2017-Oct-19 03:59 UTC.
Position N 36°01' W 005°08'.

Length 155 m; draft 6.5 m.

Type: Ship (hazmat cat A). MMSI: 248598000.

Date/timePositionNaut miles runAvg speedWind from/ knotsBaromVisibWave heightAir tempDewpointWater temp
2017-Oct-19 00:59N 36°01' W 005°08'1020.6
2017-Oct-19 00:30N 35°59' W 005°20'11 0.7
2017-Oct-18 07:53N 35°54' W 005°32'1 0.3
2017-Oct-18 05:19N 35°54' W 005°33'0 0.5
2017-Oct-18 04:53N 35°54' W 005°33'1 0.8
2017-Oct-18 04:15N 35°54' W 005°32'2 5.7
2017-Oct-18 03:52N 35°56' W 005°32'3 8.1
2017-Oct-18 03:30N 35°59' W 005°29'510.9
2017-Oct-18 03:00N 36°00' W 005°23'611.2
2017-Oct-18 02:30N 36°02' W 005°16'713.1
2017-Oct-18 02:00N 36°05' W 005°09'1 0.0
2017-Oct-17 03:04N 36°06' W 005°08'118.4
2017-Oct-17 03:00N 36°05' W 005°09'918.6
2017-Oct-17 02:30N 35°60' W 005°19'917.1
2017-Oct-17 02:01N 35°56' W 005°28'1 0.0
2017-Oct-16 04:45N 35°56' W 005°30'2 9.6
2017-Oct-16 04:31N 35°58' W 005°29'612.8
2017-Oct-16 04:01N 36°00' W 005°21'713.5
2017-Oct-16 03:31N 36°02' W 005°13'21816.1
2017-Oct-15 13:58N 37°17' W 000°59'817.8
2017-Oct-15 13:30N 37°23' W 000°51'917.5
2017-Oct-15 13:00N 37°28' W 000°43'917.8
2017-Oct-15 12:30N 37°34' W 000°34'917.9
2017-Oct-15 12:00N 37°41' W 000°28'1017.9
2017-Oct-15 11:28N 37°50' W 000°21'31617.4
2017-Oct-14 17:14N 42°05' E 003°43'917.0
2017-Oct-14 16:42N 42°12' E 003°51'1617.1
2017-Oct-14 15:47N 42°24' E 004°04'1017.4
2017-Oct-14 15:12N 42°32' E 004°13'1717.8
2017-Oct-14 14:16N 42°44' E 004°28'817.9
2017-Oct-14 13:49N 42°50' E 004°35'817.6
2017-Oct-14 13:22N 42°56' E 004°43'717.7
2017-Oct-14 12:57N 43°02' E 004°49'917.3
2017-Oct-14 12:26N 43°09' E 004°57'715.7
2017-Oct-14 12:00N 43°15' E 004°60'715.0
2017-Oct-14 11:31N 43°22' E 004°57'5 6.2
2017-Oct-14 10:42N 43°24' E 004°51'0 0.0
2017-Oct-14 10:31N 43°24' E 004°51'0 0.0
2017-Oct-14 09:49N 43°24' E 004°51'0 0.0
2017-Oct-14 09:28N 43°24' E 004°51'0 0.0
2017-Oct-14 08:58N 43°24' E 004°51'0 0.0
2017-Oct-14 07:43N 43°24' E 004°51'0 0.0
2017-Oct-14 07:28N 43°24' E 004°51'0 0.0
2017-Oct-14 05:40N 43°24' E 004°51'0 0.0
2017-Oct-14 05:16N 43°24' E 004°51'0 0.0
2017-Oct-14 04:25N 43°24' E 004°51'0 0.0
2017-Oct-14 03:43N 43°24' E 004°51'0 0.0
2017-Oct-14 03:25N 43°24' E 004°51'0 0.5
2017-Oct-14 02:59N 43°24' E 004°51'4 8.3
2017-Oct-14 02:30N 43°23' E 004°57'710.7
2017-Oct-14 01:51N 43°17' E 005°00'514.0
2017-Oct-14 01:30N 43°12' E 005°02'3 6.6
2017-Oct-14 01:00N 43°15' E 004°60'2 4.0
2017-Oct-14 00:30N 43°14' E 005°02'1216.1
2017-Oct-13 23:47N 43°04' E 004°54'1417.8
2017-Oct-13 22:59N 42°53' E 004°41'917.7
2017-Oct-13 22:27N 42°46' E 004°32'1117.3
2017-Oct-13 21:50N 42°39' E 004°22'139 6.5
2017-Oct-13 00:27N 41°05' E 002°03'11217.0
2017-Oct-12 17:51N 39°25' E 000°56'617.6
2017-Oct-12 17:30N 39°19' E 000°53'917.5
2017-Oct-12 17:00N 39°12' E 000°47'917.6
2017-Oct-12 16:30N 39°04' E 000°42'917.7
2017-Oct-12 16:00N 38°56' E 000°37'1317.6
2017-Oct-12 15:17N 38°45' E 000°30'717.4
2017-Oct-12 14:53N 38°39' E 000°25'917.3
2017-Oct-12 14:20N 38°31' E 000°18'617.2
2017-Oct-12 14:00N 38°26' E 000°14'917.0
2017-Oct-12 13:30N 38°19' E 000°09'916.8
2017-Oct-12 12:59N 38°12' E 000°02'816.7
2017-Oct-12 12:30N 38°05' W 000°04'816.7
2017-Oct-12 12:00N 37°59' W 000°10'1516.6
2017-Oct-12 11:08N 37°46' W 000°20'616.8
2017-Oct-12 10:46N 37°41' W 000°24'517.0
2017-Oct-12 10:30N 37°37' W 000°27'917.7
2017-Oct-12 09:59N 37°31' W 000°35'918.3
2017-Oct-12 09:30N 37°25' W 000°43'1018.2
2017-Oct-12 08:57N 37°18' W 000°53'21717.5
2017-Oct-11 20:32N 36°01' W 005°06'118.6
2017-Oct-11 20:29N 36°01' W 005°07'918.6
2017-Oct-11 20:00N 35°59' W 005°18'917.6
2017-Oct-11 19:30N 35°57' W 005°28'  
Track history (hours):
 
Tides and Currents Weather Stations Pressure Air Temp Water Temp Dewpoint Dewpoint Depression Visibility Wind Speed Wind Dir Waves Ship Positions

Neptune Avra

Last reported at 2017-Oct-19 00:59 UTC. Time now 2017-Oct-19 03:59 UTC.
Position N 36°01' W 005°08'.

Length 155 m; draft 6.5 m.

Type: Ship (hazmat cat A). MMSI: 248598000.

Date/timePositionNaut miles runAvg speedWind from/ knotsBaromVisibWave heightAir tempDewpointWater temp
2017-Oct-19 00:59N 36°01' W 005°08'1020.6
2017-Oct-19 00:30N 35°59' W 005°20'11 0.7
2017-Oct-18 07:53N 35°54' W 005°32'1 0.3
2017-Oct-18 05:19N 35°54' W 005°33'0 0.5
2017-Oct-18 04:53N 35°54' W 005°33'1 0.8
2017-Oct-18 04:15N 35°54' W 005°32'2 5.7
2017-Oct-18 03:52N 35°56' W 005°32'3 8.1
2017-Oct-18 03:30N 35°59' W 005°29'510.9
2017-Oct-18 03:00N 36°00' W 005°23'611.2
2017-Oct-18 02:30N 36°02' W 005°16'713.1
2017-Oct-18 02:00N 36°05' W 005°09'1 0.0
2017-Oct-17 03:04N 36°06' W 005°08'118.4
2017-Oct-17 03:00N 36°05' W 005°09'918.6
2017-Oct-17 02:30N 35°60' W 005°19'917.1
2017-Oct-17 02:01N 35°56' W 005°28'1 0.0
2017-Oct-16 04:45N 35°56' W 005°30'2 9.6
2017-Oct-16 04:31N 35°58' W 005°29'612.8
2017-Oct-16 04:01N 36°00' W 005°21'713.5
2017-Oct-16 03:31N 36°02' W 005°13'21816.1
2017-Oct-15 13:58N 37°17' W 000°59'817.8
2017-Oct-15 13:30N 37°23' W 000°51'917.5
2017-Oct-15 13:00N 37°28' W 000°43'917.8
2017-Oct-15 12:30N 37°34' W 000°34'917.9
2017-Oct-15 12:00N 37°41' W 000°28'1017.9
2017-Oct-15 11:28N 37°50' W 000°21'31617.4
2017-Oct-14 17:14N 42°05' E 003°43'917.0
2017-Oct-14 16:42N 42°12' E 003°51'1617.1
2017-Oct-14 15:47N 42°24' E 004°04'1017.4
2017-Oct-14 15:12N 42°32' E 004°13'1717.8
2017-Oct-14 14:16N 42°44' E 004°28'817.9
2017-Oct-14 13:49N 42°50' E 004°35'817.6
2017-Oct-14 13:22N 42°56' E 004°43'717.7
2017-Oct-14 12:57N 43°02' E 004°49'917.3
2017-Oct-14 12:26N 43°09' E 004°57'715.7
2017-Oct-14 12:00N 43°15' E 004°60'715.0
2017-Oct-14 11:31N 43°22' E 004°57'5 6.2
2017-Oct-14 10:42N 43°24' E 004°51'0 0.0
2017-Oct-14 10:31N 43°24' E 004°51'0 0.0
2017-Oct-14 09:49N 43°24' E 004°51'0 0.0
2017-Oct-14 09:28N 43°24' E 004°51'0 0.0
2017-Oct-14 08:58N 43°24' E 004°51'0 0.0
2017-Oct-14 07:43N 43°24' E 004°51'0 0.0
2017-Oct-14 07:28N 43°24' E 004°51'0 0.0
2017-Oct-14 05:40N 43°24' E 004°51'0 0.0
2017-Oct-14 05:16N 43°24' E 004°51'0 0.0
2017-Oct-14 04:25N 43°24' E 004°51'0 0.0
2017-Oct-14 03:43N 43°24' E 004°51'0 0.0
2017-Oct-14 03:25N 43°24' E 004°51'0 0.5
2017-Oct-14 02:59N 43°24' E 004°51'4 8.3
2017-Oct-14 02:30N 43°23' E 004°57'710.7
2017-Oct-14 01:51N 43°17' E 005°00'514.0
2017-Oct-14 01:30N 43°12' E 005°02'3 6.6
2017-Oct-14 01:00N 43°15' E 004°60'2 4.0
2017-Oct-14 00:30N 43°14' E 005°02'1216.1
2017-Oct-13 23:47N 43°04' E 004°54'1417.8
2017-Oct-13 22:59N 42°53' E 004°41'917.7
2017-Oct-13 22:27N 42°46' E 004°32'1117.3
2017-Oct-13 21:50N 42°39' E 004°22'139 6.5
2017-Oct-13 00:27N 41°05' E 002°03'11217.0
2017-Oct-12 17:51N 39°25' E 000°56'617.6
2017-Oct-12 17:30N 39°19' E 000°53'917.5
2017-Oct-12 17:00N 39°12' E 000°47'917.6
2017-Oct-12 16:30N 39°04' E 000°42'917.7
2017-Oct-12 16:00N 38°56' E 000°37'1317.6
2017-Oct-12 15:17N 38°45' E 000°30'717.4
2017-Oct-12 14:53N 38°39' E 000°25'917.3
2017-Oct-12 14:20N 38°31' E 000°18'617.2
2017-Oct-12 14:00N 38°26' E 000°14'917.0
2017-Oct-12 13:30N 38°19' E 000°09'916.8
2017-Oct-12 12:59N 38°12' E 000°02'816.7
2017-Oct-12 12:30N 38°05' W 000°04'816.7
2017-Oct-12 12:00N 37°59' W 000°10'1516.6
2017-Oct-12 11:08N 37°46' W 000°20'616.8
2017-Oct-12 10:46N 37°41' W 000°24'517.0
2017-Oct-12 10:30N 37°37' W 000°27'917.7
2017-Oct-12 09:59N 37°31' W 000°35'918.3
2017-Oct-12 09:30N 37°25' W 000°43'1018.2
2017-Oct-12 08:57N 37°18' W 000°53'21717.5
2017-Oct-11 20:32N 36°01' W 005°06'118.6
2017-Oct-11 20:29N 36°01' W 005°07'918.6
2017-Oct-11 20:00N 35°59' W 005°18'917.6
2017-Oct-11 19:30N 35°57' W 005°28'  

Dump ship's entire track history